Terminal Aerodrome Forecast
Issued by NWS

Home | Current Version | Previous Version | Graphics & Text | Print | Product List | Glossary On
Versions: 1 2 3 4 5 6 7 8 9 10 11 12 13 14 15 16 17 18 19 20 21 22 23 24 25 26 27 28
000
FTUS43 KABR 261100
TAFPIR
TAF
KPIR 261136Z 2612/2712 10006KT P6SM VCSH SCT120 BKN250
      TEMPO 2612/2615 -SHRA BKN100 OVC150
     FM261500 11006KT P6SM -SHRA VCTS BKN090 OVC120CB
     FM262100 12010KT P6SM SCT100 BKN150
     FM270200 10007KT P6SM BKN100=

USA.gov is the U.S. government's official web portal to all federal, state and local government web resources and services.